Flight Track Log - Related Links

Times and Time Zones

All times are in EDT time to prevent confusion due to time zone crossing. See the DAL681 flight status page for this flight to view local times or setup timezone preferences in your user account.

Time Position Orientation Groundspeed Altitude Reporting Facility
EDT Latitude Longitude Course Direction KTS MPH feet Rate Location/Type
Tue 10:52:14 AM 33.6167 -84.4667 145° Southeast 166 191 2,400  Level Atlanta TRACON
Tue 10:53:08 AM 33.6000 -84.5167 248° West 224 258 2,900 1,650 Climbing Atlanta TRACON
Tue 10:54:14 AM 33.5333 -84.5833 220° Southwest 281 323 5,700 2,500 Climbing Atlanta TRACON
Tue 10:55:00 AM 33.2641 -84.1471 140° Southeast  Level FlightAware Approximate
Tue 10:55:08 AM 33.4667 -84.5833 180° South 293 337 7,900  Level Atlanta TRACON
Tue 10:56:00 AM 33.1669 -84.0501 140° Southeast  Level FlightAware Approximate
Tue 10:57:00 AM 33.0736 -83.9585 145° Southeast  Level FlightAware Approximate
Tue 10:57:34 AM 33.3303 -84.3819 129° Southeast 335 386 11,500  Level Atlanta Center
Tue 10:58:34 AM 33.2658 -84.2700 125° Southeast 381 438 13,400 1,800 Climbing Atlanta Center
Tue 10:59:34 AM 33.1867 -84.1728 134° Southeast 402 463 15,100 1,800 Climbing Atlanta Center
Tue 11:00:34 AM 33.0928 -84.0858 142° Southeast 418 481 17,000 1,550 Climbing Atlanta Center
Tue 11:01:34 AM 33.0053 -84.0042 142° Southeast 429 494 18,200 1,950 Climbing Atlanta Center
Tue 11:02:34 AM 32.9050 -83.9275 147° Southeast 434 499 20,900 2,000 Climbing Atlanta Center
Tue 11:03:34 AM 32.8047 -83.8461 146° Southeast 439 505 22,200 1,311 Climbing Atlanta Center
Tue 11:04:33 AM 32.7022 -83.7625 146° Southeast 439 505 23,500 1,300 Climbing Atlanta Center
Tue 11:05:34 AM 32.5936 -83.6886 150° Southeast 439 505 24,800 1,240 Climbing Atlanta Center
Tue 11:06:34 AM 32.4847 -83.6103 149° Southeast 452 520 26,000 1,071 Climbing Atlanta Center
Tue 11:07:26 AM 32.3736 -83.5297 149° Southeast 456 525 26,800 696 Climbing Jacksonville Center
Tue 11:08:26 AM 32.2592 -83.4406 147° Southeast 499 574 27,300 650 Climbing Jacksonville Center
Tue 11:09:26 AM 32.1533 -83.3294 138° Southeast 505 581 28,100 900 Climbing Jacksonville Center
Tue 11:10:26 AM 32.0472 -83.2186 138° Southeast 510 587 29,100 800 Climbing Jacksonville Center
Tue 11:11:26 AM 31.9367 -83.1056 139° Southeast 516 594 29,700 800 Climbing Jacksonville Center
Tue 11:12:26 AM 31.8283 -82.9953 139° Southeast 516 594 30,700 1,000 Climbing Jacksonville Center
Tue 11:13:26 AM 31.7197 -82.8853 139° Southeast 516 594 31,700 900 Climbing Jacksonville Center
Tue 11:14:26 AM 31.6236 -82.7900 140° Southeast 511 588 32,500 700 Climbing Jacksonville Center
Tue 11:15:26 AM 31.5192 -82.6831 139° Southeast 506 582 33,100 750 Climbing Jacksonville Center
Tue 11:16:26 AM 31.4125 -82.5761 139° Southeast 506 582 34,000 250 Climbing Jacksonville Center
Tue 11:17:26 AM 31.2972 -82.4647 140° Southeast 501 577 33,600 -700 Descending Jacksonville Center
Tue 11:18:26 AM 31.1925 -82.3608 140° Southeast 501 577 32,600 -850 Descending Jacksonville Center
Tue 11:19:26 AM 31.0897 -82.2569 139° Southeast 501 577 31,900 -300 Descending Jacksonville Center
Tue 11:20:26 AM 30.9867 -82.1533 139° Southeast 501 577 32,000  Climbing Jacksonville Center
Tue 11:21:26 AM 30.8881 -82.0550 139° Southeast 488 562 31,900  Descending Jacksonville Center
Tue 11:22:26 AM 30.7872 -81.9542 139° Southeast 482 555 32,000 50 Climbing Jacksonville Center
Tue 11:23:26 AM 30.6861 -81.8539 140° Southeast 482 555 32,000  Level Jacksonville Center
Tue 11:24:26 AM 30.5850 -81.7561 140° Southeast 477 549 32,000 -50 Level Jacksonville Center
Tue 11:25:26 AM 30.4861 -81.6558 139° Southeast 477 549 31,900 -50 Descending Jacksonville Center
Tue 11:26:26 AM 30.3847 -81.5608 141° Southeast 477 549 31,900 50 Level Jacksonville Center
Tue 11:27:26 AM 30.2756 -81.4903 151° Southeast 466 536 32,000  Climbing Jacksonville Center
Tue 11:28:26 AM 30.1581 -81.4417 160° South 446 513 31,900 -50 Descending Jacksonville Center
Tue 11:29:26 AM 30.0386 -81.3978 162° South 446 513 31,900 50 Level Jacksonville Center
Tue 11:30:26 AM 29.9358 -81.3561 161° South 446 513 32,000  Climbing Jacksonville Center
Tue 11:31:26 AM 29.8183 -81.3125 162° South 441 507 31,900  Descending Jacksonville Center
Tue 11:32:26 AM 29.7028 -81.2667 161° South 441 507 32,000 50 Climbing Jacksonville Center
Tue 11:33:26 AM 29.5875 -81.2231 162° South 441 507 32,000 -34 Level Jacksonville Center
Tue 11:35:22 AM 29.3531 -81.1342 162° South 443 510 31,900 -34 Descending Miami Center
Tue 11:36:22 AM 29.2469 -81.0564 147° Southeast 443 510 31,900 50 Level Miami Center
Tue 11:37:22 AM 29.1497 -80.9553 138° Southeast 456 525 32,000 50 Climbing Miami Center
Tue 11:38:22 AM 29.0547 -80.8494 136° Southeast 469 540 32,000  Level Miami Center
Tue 11:39:22 AM 28.9597 -80.7394 135° Southeast 475 547 32,000  Level Miami Center
Tue 11:40:22 AM 28.8706 -80.6439 137° Southeast 486 559 32,000  Level Miami Center
Tue 11:41:22 AM 28.7736 -80.5175 131° Southeast 486 559 32,000  Level Miami Center
Tue 11:42:22 AM 28.6889 -80.3989 129° Southeast 486 559 32,000  Level Miami Center
Tue 11:43:22 AM 28.6044 -80.2756 128° Southeast 493 567 32,000  Level Miami Center
Tue 11:44:22 AM 28.5297 -80.1669 128° Southeast 498 573 32,000  Level Miami Center
Tue 11:45:22 AM 28.4406 -80.0461 130° Southeast 493 567 32,000  Level Miami Center
Tue 11:46:22 AM 28.3475 -79.9092 128° Southeast 493 567 32,000  Level Miami Center
Tue 11:47:22 AM 28.2683 -79.8033 130° Southeast 493 567 32,000  Level Miami Center
Tue 11:48:22 AM 28.1831 -79.6833 129° Southeast 493 567 32,000  Level Miami Center
Tue 11:49:22 AM 28.0978 -79.5633 129° Southeast 493 567 32,000  Level Miami Center
Tue 11:50:22 AM 28.0122 -79.4439 129° Southeast 487 560 32,000 -50 Level Miami Center
Tue 11:51:22 AM 27.9286 -79.3267 129° Southeast 487 560 31,900  Descending Miami Center
Tue 11:52:22 AM 27.8369 -79.1978 129° Southeast 487 560 32,000 50 Climbing Miami Center
Tue 11:53:22 AM 27.7511 -79.0789 129° Southeast 482 555 32,000  Level Miami Center
Tue 11:54:22 AM 27.6733 -78.9742 130° Southeast 482 555 32,000 300 Level Miami Center
Tue 11:55:22 AM 27.5894 -78.8578 129° Southeast 482 555 32,600 500 Climbing Miami Center
Tue 11:56:22 AM 27.4950 -78.7297 130° Southeast 477 549 33,000 150 Climbing Miami Center
Tue 11:57:22 AM 27.4169 -78.6208 129° Southeast 482 555 32,900  Descending Miami Center
Tue 11:58:22 AM 27.3244 -78.5047 132° Southeast 487 560 33,000 50 Climbing Miami Center
Tue 11:59:22 AM 27.2358 -78.3961 133° Southeast 487 560 33,000  Level Miami Center
Tue 12:00:22 PM 27.1347 -78.2686 132° Southeast 484 557 33,000  Level Miami Center
Tue 12:01:22 PM 27.0439 -78.1603 133° Southeast 478 550 33,000  Level Miami Center
Tue 12:02:22 PM 26.9508 -78.0589 136° Southeast 468 539 33,000  Level Miami Center
Tue 12:03:22 PM 26.8597 -77.9464 132° Southeast 468 539 33,000  Level Miami Center
Tue 12:04:22 PM 26.7686 -77.8431 135° Southeast 474 545 33,000  Level Miami Center
Tue 12:05:22 PM 26.6772 -77.7306 132° Southeast 474 545 33,000  Level Miami Center
Tue 12:06:22 PM 26.5858 -77.6208 133° Southeast 474 545 33,000  Level Miami Center
Tue 12:07:22 PM 26.5153 -77.5322 132° Southeast 480 552 33,000  Level Miami Center
Tue 12:08:22 PM 26.4114 -77.4133 134° Southeast 460 529 33,000  Level Miami Center
Tue 12:09:22 PM 26.3197 -77.3014 132° Southeast 472 543 33,000  Level Miami Center
Tue 12:10:22 PM 26.2281 -77.1922 133° Southeast 483 556 33,000  Level Miami Center
Tue 12:11:22 PM 26.1364 -77.0833 133° Southeast 483 556 33,000  Level Miami Center
Tue 12:12:22 PM 26.0425 -76.9744 134° Southeast 483 556 33,000  Level Miami Center
Tue 12:13:22 PM 25.9506 -76.8633 133° Southeast 483 556 33,000  Level Miami Center
Tue 12:14:22 PM 25.8586 -76.7572 134° Southeast 483 556 33,000  Level Miami Center
Tue 12:15:22 PM 25.7644 -76.6489 134° Southeast 483 556 33,000  Level Miami Center
Tue 12:16:22 PM 25.6703 -76.5383 133° Southeast 483 556 33,000  Level Miami Center
Tue 12:17:22 PM 25.5739 -76.4303 135° Southeast 483 556 33,000  Level Miami Center
Tue 12:18:22 PM 25.4836 -76.3222 133° Southeast 483 556 33,000  Level Miami Center
Tue 12:19:22 PM 25.3892 -76.2122 134° Southeast 483 556 33,000  Level Miami Center
Tue 12:20:22 PM 25.2944 -76.1025 134° Southeast 483 556 33,000  Level Miami Center
Tue 12:21:22 PM 25.1956 -75.9883 134° Southeast 483 556 33,000  Level Miami Center
Tue 12:22:22 PM 25.0989 -75.8811 135° Southeast 483 556 33,000  Level Miami Center
Tue 12:23:22 PM 25.0061 -75.7742 134° Southeast 483 556 33,000  Level Miami Center
Tue 12:24:22 PM 24.9114 -75.6650 134° Southeast 483 556 33,000  Level Miami Center
Tue 12:25:22 PM 24.8206 -75.5606 134° Southeast 483 556 33,000  Level Miami Center
Tue 12:26:22 PM 24.7256 -75.4564 135° Southeast 483 556 33,000  Level Miami Center
Tue 12:27:22 PM 24.6325 -75.3478 133° Southeast 477 549 33,000  Level Miami Center
Tue 12:28:22 PM 24.5414 -75.2414 133° Southeast 477 549 33,000  Level Miami Center
Tue 12:29:22 PM 24.4442 -75.1353 135° Southeast 477 549 33,000  Level Miami Center
Tue 12:30:22 PM 24.3508 -75.0294 134° Southeast 477 549 33,000  Level Miami Center
Tue 12:31:22 PM 24.2578 -74.9236 134° Southeast 477 549 33,000  Level Miami Center
Tue 12:32:22 PM 24.1622 -74.8181 135° Southeast 477 549 33,000  Level Miami Center
Tue 12:33:22 PM 24.0794 -74.7261 135° Southeast 477 549 33,000  Level Miami Center
Tue 12:34:22 PM 23.9839 -74.6208 135° Southeast 477 549 33,000  Level Miami Center
Tue 12:35:22 PM 23.8925 -74.5158 134° Southeast 477 549 33,000  Level Miami Center
Tue 12:36:22 PM 23.7989 -74.4131 135° Southeast 477 549 33,000  Level Miami Center
Tue 12:37:22 PM 23.7053 -74.3106 135° Southeast 477 549 33,000  Level Miami Center
Tue 12:38:22 PM 23.6072 -74.2036 135° Southeast 477 549 33,000  Level Miami Center
Tue 12:39:22 PM 23.5133 -74.1036 136° Southeast 477 549 33,000  Level Miami Center
Tue 12:40:22 PM 23.4133 -73.9972 136° Southeast 483 556 33,000  Level Miami Center
Tue 12:41:22 PM 23.3214 -73.8908 133° Southeast 483 556 33,000  Level Miami Center
Tue 12:42:22 PM 23.2272 -73.7844 134° Southeast 483 556 33,000  Level Miami Center
Tue 12:43:22 PM 23.1311 -73.6806 135° Southeast 483 556 33,000  Level Miami Center
Tue 12:44:22 PM 23.0350 -73.5747 135° Southeast 483 556 33,000  Level Miami Center
Tue 12:45:22 PM 22.9367 -73.4733 136° Southeast 488 562 33,000  Level Miami Center
Tue 12:46:22 PM 22.8403 -73.3678 135° Southeast 483 556 33,000  Level Miami Center
Tue 12:47:22 PM 22.7500 -73.2667 134° Southeast 483 556 33,000  Level Miami Center
Tue 12:48:22 PM 22.6536 -73.1636 135° Southeast 483 556 33,000  Level Miami Center
Tue 12:49:22 PM 22.5592 -73.0628 135° Southeast 478 550 33,000  Level Miami Center
Tue 12:50:22 PM 22.4647 -72.9600 135° Southeast 478 550 33,000  Level Miami Center
Tue 12:51:22 PM 22.3594 -72.8464 135° Southeast 478 550 33,000  Level Miami Center
Tue 12:52:22 PM 22.2733 -72.7525 135° Southeast 478 550 33,000  Level Miami Center
Tue 12:53:22 PM 22.1789 -72.6503 135° Southeast 478 550 33,000  Level Miami Center
Tue 12:54:22 PM 22.0819 -72.5503 136° Southeast 478 550 33,000  Level Miami Center
Tue 12:55:22 PM 21.9850 -72.4458 135° Southeast 478 550 33,000  Level Miami Center
Tue 12:56:22 PM 21.8925 -72.3439 134° Southeast 478 550 33,000  Level Miami Center
Tue 12:57:22 PM 21.7956 -72.2422 136° Southeast 478 550 33,000  Level Miami Center
Tue 12:58:22 PM 21.6986 -72.1428 136° Southeast 478 550 33,000  Level Miami Center
Tue 12:59:22 PM 21.6033 -72.0392 135° Southeast 478 550 33,000  Level Miami Center
Tue 01:00:22 PM 21.5083 -71.9400 136° Southeast 478 550 33,000  Level Miami Center
Tue 01:01:22 PM 21.4133 -71.8389 135° Southeast 478 550 33,000  Level Miami Center
Tue 01:02:22 PM 21.3183 -71.7400 136° Southeast 478 550 33,000  Level Miami Center
Tue 01:03:22 PM 21.2125 -71.6283 135° Southeast 478 550 33,000  Level Miami Center
Tue 01:04:22 PM 21.1150 -71.5275 136° Southeast 478 550 33,000  Level Miami Center
Tue 01:05:22 PM 21.0197 -71.4247 135° Southeast 478 550 33,000  Level Miami Center
Tue 01:06:22 PM 20.9200 -71.3222 136° Southeast 478 550 33,000  Level Miami Center
Tue 01:07:22 PM 20.8247 -71.2217 135° Southeast 483 556 33,000  Level Miami Center
Tue 01:08:22 PM 20.7294 -71.1217 136° Southeast 483 556 33,000  Level Miami Center
Tue 01:09:22 PM 20.6317 -71.0172 135° Southeast 478 550 33,000  Level Miami Center
Tue 01:10:22 PM 20.5383 -70.9194 136° Southeast 478 550 33,000  Level Miami Center
Tue 01:11:22 PM 20.4367 -70.8242 139° Southeast 478 550 33,000  Level Miami Center
Tue 01:13:00 PM 20.2634 -70.7292 162° South  Level FlightAware Approximate
Tue 01:20:00 PM 19.5360 -70.2931 131° Southeast  Level FlightAware Approximate
Tue 01:21:00 PM 19.4564 -70.1917 128° Southeast  Level FlightAware Approximate
Tue 01:22:00 PM 19.3790 -70.0884 128° Southeast  Level FlightAware Approximate
Tue 01:23:00 PM 19.3015 -69.9852 128° Southeast  Level FlightAware Approximate
Tue 01:24:00 PM 19.2102 -69.9034 163° South  Level FlightAware Approximate
Tue 01:25:00 PM 19.0906 -69.8672 164° South  Level FlightAware Approximate
Tue 01:26:00 PM 18.9710 -69.8308 164° South  Level FlightAware Approximate
Tue 01:27:00 PM 18.8515 -69.7940 164° South  Level FlightAware Approximate
Tue 01:28:00 PM 18.7326 -69.7553 162° South  Level FlightAware Approximate
Tue 01:29:00 PM 18.6150 -69.7126 159° South  Level FlightAware Approximate
Tue 01:30:00 PM 18.4946 -69.6812 159° South  Level FlightAware Approximate
Tue 01:31:00 PM 18.4297 -69.6689 159° South  Level Estimated
Tue 01:32:00 PM 18.4297 -69.6689 159° South  Level Estimated
Tue 01:33:00 PM 18.4297 -69.6689 159° South  Level Estimated
Tue 01:34:00 PM 18.4297 -69.6689 159° South  Level Estimated
Tue 01:35:00 PM 18.4297 -69.6689 159° South  Level Estimated
Tue 01:36:00 PM 18.4297 -69.6689 159° South  Level Estimated
Tue 01:37:00 PM 18.4297 -69.6689 159° South  Level Estimated
Tue 01:38:00 PM 18.4297 -69.6689 159° South  Level Estimated

Login

Don't have an account? Register now (free) for customized features, flight alerts, and more!